sensor_id;sensor_type;location;lat;lon;timestamp;P1;durP1;ratioP1;P2;durP2;ratioP2
45836;SDS011;31548;51.420;-0.040;2023-11-21T00:00:00;5.10;;;1.25;;
45836;SDS011;31548;51.420;-0.040;2023-11-21T00:02:38;2.33;;;1.00;;
45836;SDS011;31548;51.420;-0.040;2023-11-21T00:05:10;2.85;;;1.20;;
45836;SDS011;31548;51.420;-0.040;2023-11-21T00:07:39;1.77;;;1.15;;
45836;SDS011;31548;51.420;-0.040;2023-11-21T00:10:09;4.22;;;1.08;;
45836;SDS011;31548;51.420;-0.040;2023-11-21T00:12:37;5.65;;;1.20;;
45836;SDS011;31548;51.420;-0.040;2023-11-21T00:15:05;1.83;;;0.70;;
45836;SDS011;31548;51.420;-0.040;2023-11-21T00:17:36;2.00;;;0.82;;
45836;SDS011;31548;51.420;-0.040;2023-11-21T00:20:08;1.13;;;1.00;;
45836;SDS011;31548;51.420;-0.040;2023-11-21T00:22:40;3.08;;;1.30;;
45836;SDS011;31548;51.420;-0.040;2023-11-21T00:25:07;1.95;;;1.27;;
45836;SDS011;31548;51.420;-0.040;2023-11-21T00:27:36;1.23;;;0.90;;
45836;SDS011;31548;51.420;-0.040;2023-11-21T00:30:04;3.45;;;1.20;;
45836;SDS011;31548;51.420;-0.040;2023-11-21T00:32:33;1.65;;;0.95;;
45836;SDS011;31548;51.420;-0.040;2023-11-21T00:35:01;1.92;;;1.15;;
45836;SDS011;31548;51.420;-0.040;2023-11-21T00:37:28;3.20;;;1.00;;
45836;SDS011;31548;51.420;-0.040;2023-11-21T00:39:57;1.48;;;1.38;;
45836;SDS011;31548;51.420;-0.040;2023-11-21T00:42:25;4.30;;;1.50;;
45836;SDS011;31548;51.420;-0.040;2023-11-21T00:44:52;4.63;;;1.50;;
45836;SDS011;31548;51.420;-0.040;2023-11-21T00:47:20;2.97;;;1.40;;
45836;SDS011;31548;51.420;-0.040;2023-11-21T00:49:47;1.58;;;1.48;;
45836;SDS011;31548;51.420;-0.040;2023-11-21T00:52:15;4.65;;;2.30;;
45836;SDS011;31548;51.420;-0.040;2023-11-21T00:54:43;5.38;;;2.45;;
45836;SDS011;31548;51.420;-0.040;2023-11-21T00:57:11;2.10;;;1.80;;
45836;SDS011;31548;51.420;-0.040;2023-11-21T00:59:39;3.70;;;1.77;;
45836;SDS011;31548;51.420;-0.040;2023-11-21T01:02:06;2.47;;;2.25;;
45836;SDS011;31548;51.420;-0.040;2023-11-21T01:04:37;1.50;;;1.30;;
45836;SDS011;31548;51.420;-0.040;2023-11-21T01:07:04;2.28;;;1.70;;
45836;SDS011;31548;51.420;-0.040;2023-11-21T01:09:32;2.85;;;1.75;;
45836;SDS011;31548;51.420;-0.040;2023-11-21T01:11:59;2.83;;;1.67;;
45836;SDS011;31548;51.420;-0.040;2023-11-21T01:14:27;3.30;;;1.45;;
45836;SDS011;31548;51.420;-0.040;2023-11-21T01:16:56;3.85;;;1.90;;
45836;SDS011;31548;51.420;-0.040;2023-11-21T01:19:24;3.60;;;2.10;;
45836;SDS011;31548;51.420;-0.040;2023-11-21T01:21:51;4.40;;;1.75;;
45836;SDS011;31548;51.420;-0.040;2023-11-21T01:24:19;2.88;;;1.98;;
45836;SDS011;31548;51.420;-0.040;2023-11-21T01:26:47;1.85;;;1.73;;
45836;SDS011;31548;51.420;-0.040;2023-11-21T01:29:14;2.08;;;1.98;;
45836;SDS011;31548;51.420;-0.040;2023-11-21T01:31:42;4.20;;;2.85;;
45836;SDS011;31548;51.420;-0.040;2023-11-21T01:34:10;1.67;;;1.58;;
45836;SDS011;31548;51.420;-0.040;2023-11-21T01:36:38;2.08;;;1.73;;
45836;SDS011;31548;51.420;-0.040;2023-11-21T01:39:05;1.50;;;1.40;;
45836;SDS011;31548;51.420;-0.040;2023-11-21T01:41:35;3.90;;;2.20;;
45836;SDS011;31548;51.420;-0.040;2023-11-21T01:44:03;1.85;;;1.20;;
45836;SDS011;31548;51.420;-0.040;2023-11-21T01:46:34;1.60;;;1.20;;
45836;SDS011;31548;51.420;-0.040;2023-11-21T01:49:02;0.90;;;0.88;;
45836;SDS011;31548;51.420;-0.040;2023-11-21T01:51:30;1.25;;;0.82;;
45836;SDS011;31548;51.420;-0.040;2023-11-21T01:53:58;1.10;;;0.98;;
45836;SDS011;31548;51.420;-0.040;2023-11-21T01:56:26;2.67;;;0.80;;
45836;SDS011;31548;51.420;-0.040;2023-11-21T01:58:54;2.17;;;0.80;;
45836;SDS011;31548;51.420;-0.040;2023-11-21T02:01:22;4.40;;;0.90;;
45836;SDS011;31548;51.420;-0.040;2023-11-21T02:03:49;1.52;;;0.70;;
45836;SDS011;31548;51.420;-0.040;2023-11-21T02:06:17;2.90;;;0.90;;
45836;SDS011;31548;51.420;-0.040;2023-11-21T02:08:45;0.93;;;0.77;;
45836;SDS011;31548;51.420;-0.040;2023-11-21T02:11:13;0.80;;;0.70;;
45836;SDS011;31548;51.420;-0.040;2023-11-21T02:13:40;1.10;;;0.80;;
45836;SDS011;31548;51.420;-0.040;2023-11-21T02:16:12;1.40;;;1.15;;
45836;SDS011;31548;51.420;-0.040;2023-11-21T02:18:40;2.20;;;0.90;;
45836;SDS011;31548;51.420;-0.040;2023-11-21T02:21:09;0.75;;;0.60;;
45836;SDS011;31548;51.420;-0.040;2023-11-21T02:23:36;1.33;;;0.70;;
45836;SDS011;31548;51.420;-0.040;2023-11-21T02:26:05;1.02;;;0.60;;
45836;SDS011;31548;51.420;-0.040;2023-11-21T02:28:33;2.25;;;0.73;;
45836;SDS011;31548;51.420;-0.040;2023-11-21T02:31:00;1.75;;;0.65;;
45836;SDS011;31548;51.420;-0.040;2023-11-21T02:33:29;0.98;;;0.80;;
45836;SDS011;31548;51.420;-0.040;2023-11-21T02:36:02;3.13;;;0.60;;
45836;SDS011;31548;51.420;-0.040;2023-11-21T02:38:29;0.80;;;0.65;;
45836;SDS011;31548;51.420;-0.040;2023-11-21T02:40:57;1.23;;;0.90;;
45836;SDS011;31548;51.420;-0.040;2023-11-21T02:43:26;1.25;;;1.02;;
45836;SDS011;31548;51.420;-0.040;2023-11-21T02:45:53;2.55;;;1.10;;
45836;SDS011;31548;51.420;-0.040;2023-11-21T02:48:21;0.80;;;0.80;;
45836;SDS011;31548;51.420;-0.040;2023-11-21T02:50:51;1.30;;;1.20;;
45836;SDS011;31548;51.420;-0.040;2023-11-21T02:53:20;1.77;;;1.20;;
45836;SDS011;31548;51.420;-0.040;2023-11-21T02:55:47;1.52;;;1.38;;
45836;SDS011;31548;51.420;-0.040;2023-11-21T02:58:15;1.15;;;1.00;;
45836;SDS011;31548;51.420;-0.040;2023-11-21T03:00:42;1.02;;;0.90;;
45836;SDS011;31548;51.420;-0.040;2023-11-21T03:03:10;1.48;;;1.38;;
45836;SDS011;31548;51.420;-0.040;2023-11-21T03:05:37;1.48;;;1.33;;
45836;SDS011;31548;51.420;-0.040;2023-11-21T03:08:06;1.63;;;1.52;;
45836;SDS011;31548;51.420;-0.040;2023-11-21T03:10:33;1.48;;;1.08;;
45836;SDS011;31548;51.420;-0.040;2023-11-21T03:13:01;1.08;;;0.98;;
45836;SDS011;31548;51.420;-0.040;2023-11-21T03:15:28;2.42;;;1.00;;
45836;SDS011;31548;51.420;-0.040;2023-11-21T03:17:57;1.15;;;1.05;;
45836;SDS011;31548;51.420;-0.040;2023-11-21T03:20:25;1.80;;;0.93;;
45836;SDS011;31548;51.420;-0.040;2023-11-21T03:22:53;2.63;;;1.15;;
45836;SDS011;31548;51.420;-0.040;2023-11-21T03:25:20;2.25;;;0.90;;
45836;SDS011;31548;51.420;-0.040;2023-11-21T03:27:51;1.08;;;0.95;;
45836;SDS011;31548;51.420;-0.040;2023-11-21T03:30:18;2.72;;;0.90;;
45836;SDS011;31548;51.420;-0.040;2023-11-21T03:32:46;2.75;;;1.00;;
45836;SDS011;31548;51.420;-0.040;2023-11-21T03:35:14;1.42;;;0.80;;
45836;SDS011;31548;51.420;-0.040;2023-11-21T03:37:42;1.30;;;0.70;;
45836;SDS011;31548;51.420;-0.040;2023-11-21T03:40:11;1.33;;;0.70;;
45836;SDS011;31548;51.420;-0.040;2023-11-21T03:42:39;1.00;;;0.73;;
45836;SDS011;31548;51.420;-0.040;2023-11-21T03:45:08;1.90;;;0.73;;
45836;SDS011;31548;51.420;-0.040;2023-11-21T03:47:35;2.08;;;0.65;;
45836;SDS011;31548;51.420;-0.040;2023-11-21T03:50:03;2.70;;;0.80;;
45836;SDS011;31548;51.420;-0.040;2023-11-21T03:52:31;3.63;;;0.70;;
45836;SDS011;31548;51.420;-0.040;2023-11-21T03:54:59;4.47;;;0.50;;
45836;SDS011;31548;51.420;-0.040;2023-11-21T03:57:30;0.60;;;0.60;;
45836;SDS011;31548;51.420;-0.040;2023-11-21T03:59:59;0.60;;;0.50;;
45836;SDS011;31548;51.420;-0.040;2023-11-21T04:02:27;1.80;;;0.52;;
45836;SDS011;31548;51.420;-0.040;2023-11-21T04:04:55;1.30;;;0.50;;
45836;SDS011;31548;51.420;-0.040;2023-11-21T04:07:23;1.95;;;0.60;;
45836;SDS011;31548;51.420;-0.040;2023-11-21T04:09:51;0.77;;;0.50;;
45836;SDS011;31548;51.420;-0.040;2023-11-21T04:12:18;0.80;;;0.40;;
45836;SDS011;31548;51.420;-0.040;2023-11-21T04:14:46;0.50;;;0.30;;
45836;SDS011;31548;51.420;-0.040;2023-11-21T04:17:17;0.40;;;0.40;;
45836;SDS011;31548;51.420;-0.040;2023-11-21T04:19:45;0.68;;;0.40;;
45836;SDS011;31548;51.420;-0.040;2023-11-21T04:22:13;1.33;;;0.50;;
45836;SDS011;31548;51.420;-0.040;2023-11-21T04:24:41;0.40;;;0.40;;
45836;SDS011;31548;51.420;-0.040;2023-11-21T04:27:08;0.57;;;0.50;;
45836;SDS011;31548;51.420;-0.040;2023-11-21T04:29:36;0.95;;;0.47;;
45836;SDS011;31548;51.420;-0.040;2023-11-21T04:32:03;0.40;;;0.40;;
45836;SDS011;31548;51.420;-0.040;2023-11-21T04:34:31;0.55;;;0.40;;
45836;SDS011;31548;51.420;-0.040;2023-11-21T04:36:58;0.60;;;0.45;;
45836;SDS011;31548;51.420;-0.040;2023-11-21T04:39:26;2.00;;;0.38;;
45836;SDS011;31548;51.420;-0.040;2023-11-21T04:41:54;1.90;;;0.57;;
45836;SDS011;31548;51.420;-0.040;2023-11-21T04:44:21;0.50;;;0.40;;
45836;SDS011;31548;51.420;-0.040;2023-11-21T04:46:49;1.75;;;0.40;;
45836;SDS011;31548;51.420;-0.040;2023-11-21T04:49:17;2.10;;;0.40;;
45836;SDS011;31548;51.420;-0.040;2023-11-21T04:51:44;0.30;;;0.30;;
45836;SDS011;31548;51.420;-0.040;2023-11-21T04:54:11;0.47;;;0.40;;
45836;SDS011;31548;51.420;-0.040;2023-11-21T04:56:39;0.75;;;0.40;;
45836;SDS011;31548;51.420;-0.040;2023-11-21T04:59:06;0.52;;;0.40;;
45836;SDS011;31548;51.420;-0.040;2023-11-21T05:01:34;1.25;;;0.32;;
45836;SDS011;31548;51.420;-0.040;2023-11-21T05:04:03;1.50;;;0.20;;
45836;SDS011;31548;51.420;-0.040;2023-11-21T05:06:33;0.68;;;0.30;;
45836;SDS011;31548;51.420;-0.040;2023-11-21T05:09:00;3.05;;;0.40;;
45836;SDS011;31548;51.420;-0.040;2023-11-21T05:11:28;1.33;;;0.50;;
45836;SDS011;31548;51.420;-0.040;2023-11-21T05:13:56;0.90;;;0.28;;
45836;SDS011;31548;51.420;-0.040;2023-11-21T05:16:25;0.73;;;0.40;;
45836;SDS011;31548;51.420;-0.040;2023-11-21T05:18:54;1.15;;;0.40;;
45836;SDS011;31548;51.420;-0.040;2023-11-21T05:21:27;0.40;;;0.40;;
45836;SDS011;31548;51.420;-0.040;2023-11-21T05:23:56;0.63;;;0.40;;
45836;SDS011;31548;51.420;-0.040;2023-11-21T05:26:24;1.35;;;0.60;;
45836;SDS011;31548;51.420;-0.040;2023-11-21T05:28:52;1.80;;;0.60;;
45836;SDS011;31548;51.420;-0.040;2023-11-21T05:31:20;1.05;;;0.50;;
45836;SDS011;31548;51.420;-0.040;2023-11-21T05:33:48;1.52;;;0.40;;
45836;SDS011;31548;51.420;-0.040;2023-11-21T05:36:15;0.70;;;0.40;;
45836;SDS011;31548;51.420;-0.040;2023-11-21T05:38:43;0.82;;;0.50;;
45836;SDS011;31548;51.420;-0.040;2023-11-21T05:41:11;2.78;;;0.60;;
45836;SDS011;31548;51.420;-0.040;2023-11-21T05:43:40;3.92;;;0.50;;
45836;SDS011;31548;51.420;-0.040;2023-11-21T05:46:07;1.80;;;0.57;;
45836;SDS011;31548;51.420;-0.040;2023-11-21T05:48:36;1.60;;;0.50;;
45836;SDS011;31548;51.420;-0.040;2023-11-21T05:51:06;2.95;;;0.40;;
45836;SDS011;31548;51.420;-0.040;2023-11-21T05:53:33;0.73;;;0.43;;
45836;SDS011;31548;51.420;-0.040;2023-11-21T05:56:01;1.58;;;0.50;;
45836;SDS011;31548;51.420;-0.040;2023-11-21T05:58:30;1.15;;;0.47;;
45836;SDS011;31548;51.420;-0.040;2023-11-21T06:00:58;1.92;;;0.40;;
45836;SDS011;31548;51.420;-0.040;2023-11-21T06:03:25;1.02;;;0.50;;
45836;SDS011;31548;51.420;-0.040;2023-11-21T06:05:53;3.95;;;0.68;;
45836;SDS011;31548;51.420;-0.040;2023-11-21T06:08:21;0.75;;;0.45;;
45836;SDS011;31548;51.420;-0.040;2023-11-21T06:10:48;2.88;;;0.50;;
45836;SDS011;31548;51.420;-0.040;2023-11-21T06:13:16;2.78;;;0.50;;
45836;SDS011;31548;51.420;-0.040;2023-11-21T06:15:47;0.50;;;0.50;;
45836;SDS011;31548;51.420;-0.040;2023-11-21T06:18:15;0.60;;;0.47;;
45836;SDS011;31548;51.420;-0.040;2023-11-21T06:20:42;1.48;;;0.52;;
45836;SDS011;31548;51.420;-0.040;2023-11-21T06:23:10;1.45;;;0.70;;
45836;SDS011;31548;51.420;-0.040;2023-11-21T06:25:37;2.92;;;0.50;;
45836;SDS011;31548;51.420;-0.040;2023-11-21T06:28:06;1.67;;;0.40;;
45836;SDS011;31548;51.420;-0.040;2023-11-21T06:30:33;1.20;;;0.60;;
45836;SDS011;31548;51.420;-0.040;2023-11-21T06:33:01;1.60;;;0.40;;
45836;SDS011;31548;51.420;-0.040;2023-11-21T06:35:29;2.40;;;0.50;;
45836;SDS011;31548;51.420;-0.040;2023-11-21T06:37:59;1.05;;;0.40;;
45836;SDS011;31548;51.420;-0.040;2023-11-21T06:40:26;1.00;;;0.40;;
45836;SDS011;31548;51.420;-0.040;2023-11-21T06:42:54;0.45;;;0.40;;
45836;SDS011;31548;51.420;-0.040;2023-11-21T06:45:22;1.38;;;0.40;;
45836;SDS011;31548;51.420;-0.040;2023-11-21T06:47:49;2.83;;;0.40;;
45836;SDS011;31548;51.420;-0.040;2023-11-21T06:50:18;1.80;;;0.40;;
45836;SDS011;31548;51.420;-0.040;2023-11-21T06:52:45;2.67;;;0.30;;
45836;SDS011;31548;51.420;-0.040;2023-11-21T06:55:13;1.98;;;0.80;;
45836;SDS011;31548;51.420;-0.040;2023-11-21T06:57:41;5.05;;;0.40;;
45836;SDS011;31548;51.420;-0.040;2023-11-21T07:00:08;1.30;;;0.40;;
45836;SDS011;31548;51.420;-0.040;2023-11-21T07:02:36;1.65;;;0.40;;
45836;SDS011;31548;51.420;-0.040;2023-11-21T07:05:05;1.23;;;0.52;;
45836;SDS011;31548;51.420;-0.040;2023-11-21T07:07:33;2.67;;;0.73;;
45836;SDS011;31548;51.420;-0.040;2023-11-21T07:10:03;2.53;;;0.50;;
45836;SDS011;31548;51.420;-0.040;2023-11-21T07:12:32;3.13;;;0.50;;
45836;SDS011;31548;51.420;-0.040;2023-11-21T07:15:01;1.85;;;0.50;;
45836;SDS011;31548;51.420;-0.040;2023-11-21T07:17:29;1.67;;;0.50;;
45836;SDS011;31548;51.420;-0.040;2023-11-21T07:19:58;3.50;;;0.50;;
45836;SDS011;31548;51.420;-0.040;2023-11-21T07:22:26;1.08;;;0.50;;
45836;SDS011;31548;51.420;-0.040;2023-11-21T07:24:53;1.98;;;0.50;;
45836;SDS011;31548;51.420;-0.040;2023-11-21T07:27:21;1.85;;;0.40;;
45836;SDS011;31548;51.420;-0.040;2023-11-21T07:29:48;2.05;;;0.50;;
45836;SDS011;31548;51.420;-0.040;2023-11-21T07:32:15;2.05;;;0.50;;
45836;SDS011;31548;51.420;-0.040;2023-11-21T07:34:43;4.32;;;1.05;;
45836;SDS011;31548;51.420;-0.040;2023-11-21T07:37:11;1.80;;;0.60;;
45836;SDS011;31548;51.420;-0.040;2023-11-21T07:39:39;1.85;;;0.50;;
45836;SDS011;31548;51.420;-0.040;2023-11-21T07:42:09;4.68;;;0.75;;
45836;SDS011;31548;51.420;-0.040;2023-11-21T07:44:37;1.75;;;0.52;;
45836;SDS011;31548;51.420;-0.040;2023-11-21T07:47:05;2.75;;;0.70;;
45836;SDS011;31548;51.420;-0.040;2023-11-21T07:49:33;1.70;;;0.70;;
45836;SDS011;31548;51.420;-0.040;2023-11-21T07:52:01;1.75;;;0.70;;
45836;SDS011;31548;51.420;-0.040;2023-11-21T07:54:28;6.78;;;0.80;;
45836;SDS011;31548;51.420;-0.040;2023-11-21T07:56:56;1.08;;;0.80;;
45836;SDS011;31548;51.420;-0.040;2023-11-21T07:59:23;3.13;;;1.33;;
45836;SDS011;31548;51.420;-0.040;2023-11-21T08:01:51;1.52;;;0.70;;
45836;SDS011;31548;51.420;-0.040;2023-11-21T08:04:18;1.42;;;0.70;;
45836;SDS011;31548;51.420;-0.040;2023-11-21T08:06:46;3.53;;;0.82;;
45836;SDS011;31548;51.420;-0.040;2023-11-21T08:09:14;3.10;;;1.23;;
45836;SDS011;31548;51.420;-0.040;2023-11-21T08:11:44;2.63;;;1.00;;
45836;SDS011;31548;51.420;-0.040;2023-11-21T08:14:13;1.70;;;0.82;;
45836;SDS011;31548;51.420;-0.040;2023-11-21T08:16:42;3.70;;;0.80;;
45836;SDS011;31548;51.420;-0.040;2023-11-21T08:19:09;4.47;;;1.00;;
45836;SDS011;31548;51.420;-0.040;2023-11-21T08:21:38;1.33;;;0.90;;
45836;SDS011;31548;51.420;-0.040;2023-11-21T08:24:07;2.97;;;0.70;;
45836;SDS011;31548;51.420;-0.040;2023-11-21T08:26:38;2.10;;;0.98;;
45836;SDS011;31548;51.420;-0.040;2023-11-21T08:29:06;4.10;;;1.50;;
45836;SDS011;31548;51.420;-0.040;2023-11-21T08:31:34;1.80;;;0.85;;
45836;SDS011;31548;51.420;-0.040;2023-11-21T08:34:02;1.60;;;0.73;;
45836;SDS011;31548;51.420;-0.040;2023-11-21T08:36:30;4.40;;;0.90;;
45836;SDS011;31548;51.420;-0.040;2023-11-21T08:38:58;3.50;;;0.60;;
45836;SDS011;31548;51.420;-0.040;2023-11-21T08:41:25;4.45;;;0.90;;
45836;SDS011;31548;51.420;-0.040;2023-11-21T08:43:54;2.05;;;0.60;;
45836;SDS011;31548;51.420;-0.040;2023-11-21T08:46:23;0.88;;;0.60;;
45836;SDS011;31548;51.420;-0.040;2023-11-21T08:48:53;2.15;;;0.57;;
45836;SDS011;31548;51.420;-0.040;2023-11-21T08:51:20;1.33;;;0.50;;
45836;SDS011;31548;51.420;-0.040;2023-11-21T08:53:48;1.65;;;0.50;;
45836;SDS011;31548;51.420;-0.040;2023-11-21T08:56:15;2.03;;;0.50;;
45836;SDS011;31548;51.420;-0.040;2023-11-21T08:58:43;2.05;;;0.52;;
45836;SDS011;31548;51.420;-0.040;2023-11-21T09:01:10;1.63;;;0.50;;
45836;SDS011;31548;51.420;-0.040;2023-11-21T09:03:39;2.67;;;0.40;;
45836;SDS011;31548;51.420;-0.040;2023-11-21T09:06:07;2.33;;;0.60;;
45836;SDS011;31548;51.420;-0.040;2023-11-21T09:08:36;2.58;;;0.57;;
45836;SDS011;31548;51.420;-0.040;2023-11-21T09:11:04;1.48;;;0.50;;
45836;SDS011;31548;51.420;-0.040;2023-11-21T09:13:32;5.85;;;0.50;;
45836;SDS011;31548;51.420;-0.040;2023-11-21T09:16:01;1.65;;;0.30;;
45836;SDS011;31548;51.420;-0.040;2023-11-21T09:18:29;4.00;;;0.80;;
45836;SDS011;31548;51.420;-0.040;2023-11-21T09:20:57;2.85;;;1.30;;
45836;SDS011;31548;51.420;-0.040;2023-11-21T09:23:25;1.17;;;0.60;;
45836;SDS011;31548;51.420;-0.040;2023-11-21T09:25:53;4.45;;;0.52;;
45836;SDS011;31548;51.420;-0.040;2023-11-21T09:28:24;2.00;;;0.40;;
45836;SDS011;31548;51.420;-0.040;2023-11-21T09:30:51;3.67;;;0.90;;
45836;SDS011;31548;51.420;-0.040;2023-11-21T09:33:19;4.03;;;0.75;;
45836;SDS011;31548;51.420;-0.040;2023-11-21T09:35:49;2.95;;;0.50;;
45836;SDS011;31548;51.420;-0.040;2023-11-21T09:38:17;0.95;;;0.40;;
45836;SDS011;31548;51.420;-0.040;2023-11-21T09:40:46;1.45;;;0.40;;
45836;SDS011;31548;51.420;-0.040;2023-11-21T09:43:17;1.15;;;0.32;;
45836;SDS011;31548;51.420;-0.040;2023-11-21T09:45:56;1.27;;;0.50;;
45836;SDS011;31548;51.420;-0.040;2023-11-21T09:48:27;0.70;;;0.40;;
45836;SDS011;31548;51.420;-0.040;2023-11-21T09:50:57;2.42;;;0.40;;
45836;SDS011;31548;51.420;-0.040;2023-11-21T09:53:27;1.15;;;0.40;;
45836;SDS011;31548;51.420;-0.040;2023-11-21T09:56:00;3.38;;;0.50;;
45836;SDS011;31548;51.420;-0.040;2023-11-21T09:58:29;3.95;;;0.35;;
45836;SDS011;31548;51.420;-0.040;2023-11-21T10:00:57;3.10;;;0.50;;
45836;SDS011;31548;51.420;-0.040;2023-11-21T10:03:29;3.97;;;0.40;;
45836;SDS011;31548;51.420;-0.040;2023-11-21T10:05:57;1.58;;;0.40;;
45836;SDS011;31548;51.420;-0.040;2023-11-21T10:08:28;1.08;;;0.40;;
45836;SDS011;31548;51.420;-0.040;2023-11-21T10:11:15;5.13;;;0.30;;
45836;SDS011;31548;51.420;-0.040;2023-11-21T10:13:46;0.85;;;0.30;;
45836;SDS011;31548;51.420;-0.040;2023-11-21T10:16:16;1.63;;;0.30;;
45836;SDS011;31548;51.420;-0.040;2023-11-21T10:18:49;4.78;;;0.40;;
45836;SDS011;31548;51.420;-0.040;2023-11-21T10:21:29;0.80;;;0.30;;
45836;SDS011;31548;51.420;-0.040;2023-11-21T10:23:57;1.38;;;0.40;;
45836;SDS011;31548;51.420;-0.040;2023-11-21T10:26:25;0.80;;;0.30;;
45836;SDS011;31548;51.420;-0.040;2023-11-21T10:29:09;0.75;;;0.32;;
45836;SDS011;31548;51.420;-0.040;2023-11-21T10:31:43;1.60;;;0.40;;
45836;SDS011;31548;51.420;-0.040;2023-11-21T10:36:45;2.78;;;0.38;;
45836;SDS011;31548;51.420;-0.040;2023-11-21T10:39:19;0.57;;;0.40;;
45836;SDS011;31548;51.420;-0.040;2023-11-21T10:41:50;0.57;;;0.30;;
45836;SDS011;31548;51.420;-0.040;2023-11-21T10:44:18;0.52;;;0.30;;
45836;SDS011;31548;51.420;-0.040;2023-11-21T10:46:51;0.68;;;0.30;;
45836;SDS011;31548;51.420;-0.040;2023-11-21T10:49:27;0.40;;;0.28;;
45836;SDS011;31548;51.420;-0.040;2023-11-21T10:51:55;0.73;;;0.30;;
45836;SDS011;31548;51.420;-0.040;2023-11-21T10:54:24;1.50;;;0.30;;
45836;SDS011;31548;51.420;-0.040;2023-11-21T10:56:56;1.27;;;0.38;;
45836;SDS011;31548;51.420;-0.040;2023-11-21T10:59:29;0.70;;;0.30;;
45836;SDS011;31548;51.420;-0.040;2023-11-21T11:01:59;0.60;;;0.30;;
45836;SDS011;31548;51.420;-0.040;2023-11-21T11:04:31;1.85;;;0.30;;
45836;SDS011;31548;51.420;-0.040;2023-11-21T11:07:02;0.40;;;0.30;;
45836;SDS011;31548;51.420;-0.040;2023-11-21T11:09:32;0.95;;;0.40;;
45836;SDS011;31548;51.420;-0.040;2023-11-21T11:12:03;0.52;;;0.43;;
45836;SDS011;31548;51.420;-0.040;2023-11-21T11:14:33;0.40;;;0.30;;
45836;SDS011;31548;51.420;-0.040;2023-11-21T11:17:01;1.27;;;0.30;;
45836;SDS011;31548;51.420;-0.040;2023-11-21T11:19:31;6.43;;;0.43;;
45836;SDS011;31548;51.420;-0.040;2023-11-21T11:25:18;0.45;;;0.20;;
45836;SDS011;31548;51.420;-0.040;2023-11-21T11:27:54;0.85;;;0.32;;
45836;SDS011;31548;51.420;-0.040;2023-11-21T11:30:32;1.55;;;1.27;;
45836;SDS011;31548;51.420;-0.040;2023-11-21T11:36:05;0.30;;;0.20;;
45836;SDS011;31548;51.420;-0.040;2023-11-21T11:41:06;1.95;;;0.30;;
45836;SDS011;31548;51.420;-0.040;2023-11-21T11:43:36;0.95;;;0.30;;
45836;SDS011;31548;51.420;-0.040;2023-11-21T11:46:12;1.33;;;0.30;;
45836;SDS011;31548;51.420;-0.040;2023-11-21T11:48:40;1.27;;;0.45;;
45836;SDS011;31548;51.420;-0.040;2023-11-21T11:51:11;0.45;;;0.30;;
45836;SDS011;31548;51.420;-0.040;2023-11-21T11:53:48;1.00;;;0.30;;
45836;SDS011;31548;51.420;-0.040;2023-11-21T11:56:29;3.65;;;0.40;;
45836;SDS011;31548;51.420;-0.040;2023-11-21T11:59:03;4.22;;;0.40;;
45836;SDS011;31548;51.420;-0.040;2023-11-21T12:01:33;1.05;;;0.50;;
45836;SDS011;31548;51.420;-0.040;2023-11-21T12:06:42;2.70;;;0.82;;
45836;SDS011;31548;51.420;-0.040;2023-11-21T12:09:20;3.70;;;0.50;;
45836;SDS011;31548;51.420;-0.040;2023-11-21T12:11:49;4.13;;;0.57;;
45836;SDS011;31548;51.420;-0.040;2023-11-21T12:14:17;1.20;;;0.50;;
45836;SDS011;31548;51.420;-0.040;2023-11-21T12:16:45;1.38;;;0.47;;
45836;SDS011;31548;51.420;-0.040;2023-11-21T12:19:13;2.50;;;0.73;;
45836;SDS011;31548;51.420;-0.040;2023-11-21T12:21:41;4.38;;;0.60;;
45836;SDS011;31548;51.420;-0.040;2023-11-21T12:24:09;0.95;;;0.60;;
45836;SDS011;31548;51.420;-0.040;2023-11-21T12:26:36;2.05;;;0.65;;
45836;SDS011;31548;51.420;-0.040;2023-11-21T12:29:04;1.45;;;0.73;;
45836;SDS011;31548;51.420;-0.040;2023-11-21T12:31:34;3.17;;;0.98;;
45836;SDS011;31548;51.420;-0.040;2023-11-21T12:34:03;1.23;;;0.73;;
45836;SDS011;31548;51.420;-0.040;2023-11-21T12:36:31;1.70;;;0.70;;
45836;SDS011;31548;51.420;-0.040;2023-11-21T12:39:00;3.42;;;0.60;;
45836;SDS011;31548;51.420;-0.040;2023-11-21T12:41:30;1.80;;;0.70;;
45836;SDS011;31548;51.420;-0.040;2023-11-21T12:43:57;1.63;;;0.60;;
45836;SDS011;31548;51.420;-0.040;2023-11-21T12:46:25;0.75;;;0.43;;
45836;SDS011;31548;51.420;-0.040;2023-11-21T12:48:56;1.25;;;0.70;;
45836;SDS011;31548;51.420;-0.040;2023-11-21T12:51:24;0.77;;;0.60;;
45836;SDS011;31548;51.420;-0.040;2023-11-21T12:53:52;3.10;;;0.65;;
45836;SDS011;31548;51.420;-0.040;2023-11-21T12:56:21;2.38;;;0.63;;
45836;SDS011;31548;51.420;-0.040;2023-11-21T12:58:50;1.10;;;0.90;;
45836;SDS011;31548;51.420;-0.040;2023-11-21T13:01:25;0.90;;;0.77;;
45836;SDS011;31548;51.420;-0.040;2023-11-21T13:03:56;0.50;;;0.50;;
45836;SDS011;31548;51.420;-0.040;2023-11-21T13:06:25;1.13;;;0.60;;
45836;SDS011;31548;51.420;-0.040;2023-11-21T13:08:53;0.57;;;0.55;;
45836;SDS011;31548;51.420;-0.040;2023-11-21T13:11:24;1.35;;;0.90;;
45836;SDS011;31548;51.420;-0.040;2023-11-21T13:13:54;1.52;;;0.68;;
45836;SDS011;31548;51.420;-0.040;2023-11-21T13:16:23;0.90;;;0.90;;
45836;SDS011;31548;51.420;-0.040;2023-11-21T13:18:50;1.38;;;0.60;;
45836;SDS011;31548;51.420;-0.040;2023-11-21T13:21:17;0.90;;;0.68;;
45836;SDS011;31548;51.420;-0.040;2023-11-21T13:23:45;1.10;;;0.80;;
45836;SDS011;31548;51.420;-0.040;2023-11-21T13:26:13;0.93;;;0.70;;
45836;SDS011;31548;51.420;-0.040;2023-11-21T13:28:42;2.22;;;0.63;;
45836;SDS011;31548;51.420;-0.040;2023-11-21T13:31:13;0.80;;;0.60;;
45836;SDS011;31548;51.420;-0.040;2023-11-21T13:33:54;1.33;;;0.50;;
45836;SDS011;31548;51.420;-0.040;2023-11-21T13:36:31;0.47;;;0.40;;
45836;SDS011;31548;51.420;-0.040;2023-11-21T13:39:02;0.30;;;0.30;;
45836;SDS011;31548;51.420;-0.040;2023-11-21T13:41:35;1.30;;;0.30;;
45836;SDS011;31548;51.420;-0.040;2023-11-21T13:44:05;2.75;;;0.20;;
45836;SDS011;31548;51.420;-0.040;2023-11-21T13:46:46;0.73;;;0.10;;
45836;SDS011;31548;51.420;-0.040;2023-11-21T13:49:14;0.30;;;0.20;;
45836;SDS011;31548;51.420;-0.040;2023-11-21T13:51:43;1.17;;;0.10;;
45836;SDS011;31548;51.420;-0.040;2023-11-21T13:54:17;1.10;;;0.20;;
45836;SDS011;31548;51.420;-0.040;2023-11-21T13:56:46;0.20;;;0.20;;
45836;SDS011;31548;51.420;-0.040;2023-11-21T13:59:16;0.40;;;0.30;;
45836;SDS011;31548;51.420;-0.040;2023-11-21T14:01:55;3.20;;;0.30;;
45836;SDS011;31548;51.420;-0.040;2023-11-21T14:04:27;0.73;;;0.30;;
45836;SDS011;31548;51.420;-0.040;2023-11-21T14:06:58;2.15;;;0.63;;
45836;SDS011;31548;51.420;-0.040;2023-11-21T14:09:29;1.67;;;0.28;;
45836;SDS011;31548;51.420;-0.040;2023-11-21T14:12:02;5.13;;;0.40;;
45836;SDS011;31548;51.420;-0.040;2023-11-21T14:14:33;2.88;;;0.50;;
45836;SDS011;31548;51.420;-0.040;2023-11-21T14:17:01;0.82;;;0.30;;
45836;SDS011;31548;51.420;-0.040;2023-11-21T14:19:33;0.60;;;0.22;;
45836;SDS011;31548;51.420;-0.040;2023-11-21T14:22:03;2.95;;;0.32;;
45836;SDS011;31548;51.420;-0.040;2023-11-21T14:24:32;1.40;;;0.38;;
45836;SDS011;31548;51.420;-0.040;2023-11-21T14:26:59;2.05;;;0.40;;
45836;SDS011;31548;51.420;-0.040;2023-11-21T14:29:27;3.00;;;0.55;;
45836;SDS011;31548;51.420;-0.040;2023-11-21T14:31:56;3.15;;;0.40;;
45836;SDS011;31548;51.420;-0.040;2023-11-21T14:34:24;2.75;;;0.40;;
45836;SDS011;31548;51.420;-0.040;2023-11-21T14:36:53;3.60;;;0.40;;
45836;SDS011;31548;51.420;-0.040;2023-11-21T14:39:21;2.97;;;0.30;;
45836;SDS011;31548;51.420;-0.040;2023-11-21T14:41:55;3.92;;;0.40;;
45836;SDS011;31548;51.420;-0.040;2023-11-21T14:44:25;4.07;;;0.50;;
45836;SDS011;31548;51.420;-0.040;2023-11-21T14:46:59;6.57;;;1.17;;
45836;SDS011;31548;51.420;-0.040;2023-11-21T14:49:30;3.17;;;0.52;;
45836;SDS011;31548;51.420;-0.040;2023-11-21T14:52:07;4.38;;;0.40;;
45836;SDS011;31548;51.420;-0.040;2023-11-21T14:54:50;3.30;;;0.40;;
45836;SDS011;31548;51.420;-0.040;2023-11-21T14:57:27;3.63;;;0.30;;